createdAt,value
2022-08-26T00:03:37.684Z,99941.00
2022-08-26T00:09:40.405Z,99932.00
2022-08-26T00:15:42.877Z,99923.00
2022-08-26T00:21:45.590Z,99913.00
2022-08-26T00:27:48.160Z,99913.00
2022-08-26T00:33:50.452Z,99914.00
2022-08-26T00:39:53.163Z,99903.00
2022-08-26T00:46:02.456Z,99900.00
2022-08-26T00:52:09.902Z,99907.00
2022-08-26T00:58:14.249Z,99904.00
2022-08-26T01:04:18.812Z,99907.00
2022-08-26T01:10:28.075Z,99898.00
2022-08-26T01:16:30.806Z,99896.00
2022-08-26T01:22:55.736Z,99896.00
2022-08-26T01:29:00.580Z,99895.00
2022-08-26T01:35:03.609Z,99897.00
2022-08-26T01:41:12.464Z,99897.00
2022-08-26T01:47:22.142Z,99894.00
2022-08-26T01:53:25.578Z,99891.00
2022-08-26T01:59:29.701Z,99896.00
2022-08-26T02:05:32.030Z,99888.00
2022-08-26T02:11:35.015Z,99891.00
2022-08-26T02:17:43.626Z,99893.00
2022-08-26T02:23:45.948Z,99902.00
2022-08-26T02:29:53.153Z,99897.00
2022-08-26T02:35:55.604Z,99897.00
2022-08-26T02:41:59.484Z,99897.00
2022-08-26T02:48:11.644Z,99892.00
2022-08-26T02:54:14.416Z,99898.00
2022-08-26T03:00:17.389Z,99905.00
2022-08-26T03:06:19.823Z,99909.00
2022-08-26T03:12:26.039Z,99908.00
2022-08-26T03:18:28.880Z,99918.00
2022-08-26T03:24:31.744Z,99916.00
2022-08-26T03:30:45.026Z,99912.00
2022-08-26T03:36:47.862Z,99913.00
2022-08-26T03:42:51.301Z,99911.00
2022-08-26T03:48:53.689Z,99913.00
2022-08-26T03:54:56.225Z,99918.00
2022-08-26T04:00:58.387Z,99915.00
2022-08-26T04:07:00.711Z,99911.00
2022-08-26T04:13:02.838Z,99912.00
2022-08-26T04:19:06.811Z,99911.00
2022-08-26T04:25:09.707Z,99910.00
2022-08-26T04:31:14.923Z,99915.00
2022-08-26T04:37:17.509Z,99917.00
2022-08-26T04:43:19.780Z,99920.00
2022-08-26T04:49:21.830Z,99917.00
2022-08-26T04:55:25.227Z,99910.00
2022-08-26T05:01:44.347Z,99916.00
2022-08-26T05:07:46.703Z,99898.00
2022-08-26T05:13:50.856Z,99843.00
2022-08-26T05:19:53.264Z,99852.00
2022-08-26T05:25:59.192Z,99844.00
2022-08-26T05:32:02.944Z,99835.00
2022-08-26T05:38:12.416Z,99840.00
2022-08-26T05:44:20.562Z,99852.00
2022-08-26T05:50:25.933Z,99844.00
2022-08-26T05:56:28.674Z,99844.00
2022-08-26T06:02:30.905Z,99848.00
2022-08-26T06:08:33.384Z,99847.00
2022-08-26T06:14:36.516Z,99852.00
2022-08-26T06:20:43.925Z,99858.00
2022-08-26T06:27:02.316Z,99864.00
2022-08-26T06:33:04.773Z,99859.00
2022-08-26T06:39:10.389Z,99851.00
2022-08-26T06:45:12.819Z,99852.00
2022-08-26T06:51:18.925Z,99854.00
2022-08-26T06:57:21.067Z,99855.00
2022-08-26T07:03:23.615Z,99856.00
2022-08-26T07:09:28.818Z,99849.00
2022-08-26T07:15:31.653Z,99845.00
2022-08-26T07:21:34.324Z,99853.00
2022-08-26T07:27:38.456Z,99838.00
2022-08-26T07:33:41.666Z,99846.00
2022-08-26T07:39:44.663Z,99846.00
2022-08-26T07:45:47.232Z,99854.00
2022-08-26T07:51:50.516Z,99851.00
2022-08-26T07:57:53.273Z,99845.00
2022-08-26T08:03:56.882Z,99837.00
2022-08-26T08:09:59.488Z,99834.00
2022-08-26T08:16:02.269Z,99832.00
2022-08-26T08:22:06.889Z,99819.00
2022-08-26T08:28:19.776Z,99812.00
2022-08-26T08:34:24.945Z,99807.00
2022-08-26T08:40:28.481Z,99812.00
2022-08-26T08:46:31.809Z,99803.00
2022-08-26T08:52:39.601Z,99786.00
2022-08-26T08:58:52.121Z,99800.00
2022-08-26T09:05:09.275Z,99800.00
2022-08-26T09:11:19.497Z,99800.00
2022-08-26T09:17:33.742Z,99821.00
2022-08-26T09:23:41.780Z,99802.00
2022-08-26T09:29:45.906Z,99788.00
2022-08-26T09:36:24.783Z,99797.00
2022-08-26T09:42:27.146Z,99809.00
2022-08-26T09:48:38.146Z,99788.00
2022-08-26T09:54:46.014Z,99788.00
2022-08-26T10:00:57.353Z,99786.00
2022-08-26T10:07:06.433Z,99785.00
2022-08-26T10:13:33.004Z,99779.00
2022-08-26T10:19:57.206Z,99774.00
2022-08-26T10:26:14.182Z,99790.00
2022-08-26T10:32:41.377Z,99774.00
2022-08-26T10:38:44.730Z,99769.00
2022-08-26T10:44:51.120Z,99764.00
2022-08-26T10:50:53.612Z,99764.00
2022-08-26T10:57:10.865Z,99758.00
2022-08-26T11:03:21.881Z,99715.00
2022-08-26T11:09:47.189Z,99731.00
2022-08-26T11:15:52.738Z,99707.00
2022-08-26T11:22:47.397Z,99754.00
2022-08-26T11:28:50.716Z,99780.00
2022-08-26T11:34:58.448Z,99779.00
2022-08-26T11:41:09.317Z,99761.00
2022-08-26T11:47:15.346Z,99715.00
2022-08-26T11:53:19.296Z,99742.00
2022-08-26T12:05:59.046Z,99720.00
2022-08-26T12:12:13.879Z,99717.00
2022-08-26T12:18:29.681Z,99717.00
2022-08-26T12:24:32.678Z,99735.00
2022-08-26T12:30:35.369Z,99716.00
2022-08-26T12:36:46.839Z,99712.00
2022-08-26T12:42:49.180Z,99694.00
2022-08-26T12:48:51.655Z,99699.00
2022-08-26T12:55:00.124Z,99679.00
2022-08-26T13:01:06.759Z,99680.00
2022-08-26T13:07:24.694Z,99675.00
2022-08-26T13:13:27.215Z,99689.00
2022-08-26T13:19:32.228Z,99717.00
2022-08-26T13:25:34.629Z,99732.00
2022-08-26T13:31:40.326Z,99736.00
2022-08-26T13:37:42.867Z,99741.00
2022-08-26T13:43:45.423Z,99753.00
2022-08-26T13:49:47.641Z,99758.00
2022-08-26T13:55:50.339Z,99752.00
2022-08-26T14:01:52.697Z,99755.00
2022-08-26T14:07:57.583Z,99740.00
2022-08-26T14:14:00.321Z,99752.00
2022-08-26T14:20:02.787Z,99759.00
2022-08-26T14:26:08.511Z,99743.00
2022-08-26T14:32:24.083Z,99749.00
2022-08-26T14:38:26.767Z,99744.00
2022-08-26T14:44:32.311Z,99752.00
2022-08-26T14:50:34.687Z,99755.00
2022-08-26T14:56:39.888Z,99762.00
2022-08-26T15:02:42.968Z,99757.00
2022-08-26T15:08:45.362Z,99759.00
2022-08-26T15:14:48.717Z,99763.00
2022-08-26T15:20:50.909Z,99769.00
2022-08-26T15:26:54.090Z,99771.00
2022-08-26T15:32:56.280Z,99771.00
2022-08-26T15:39:00.648Z,99768.00
2022-08-26T15:45:03.122Z,99763.00
2022-08-26T15:51:06.810Z,99769.00
2022-08-26T15:57:11.527Z,99775.00
2022-08-26T16:03:14.918Z,99763.00
2022-08-26T16:09:17.300Z,99776.00
2022-08-26T16:15:20.038Z,99772.00
2022-08-26T16:21:24.999Z,99785.00
2022-08-26T16:27:27.798Z,99787.00
2022-08-26T16:33:30.547Z,99792.00
2022-08-26T16:39:32.978Z,99795.00
2022-08-26T16:45:42.414Z,99800.00
2022-08-26T16:51:44.711Z,99807.00
2022-08-26T16:57:47.628Z,99804.00
2022-08-26T17:03:50.890Z,99801.00
2022-08-26T17:09:53.295Z,99799.00
2022-08-26T17:15:58.487Z,99811.00
2022-08-26T17:22:02.472Z,99807.00
2022-08-26T17:28:13.298Z,99819.00
2022-08-26T17:34:15.828Z,99821.00
2022-08-26T17:40:20.991Z,99823.00
2022-08-26T17:46:23.797Z,99826.00
2022-08-26T17:52:26.157Z,99837.00
2022-08-26T17:58:28.563Z,99836.00
2022-08-26T18:04:32.223Z,99848.00
2022-08-26T18:10:35.368Z,99855.00
2022-08-26T18:16:42.009Z,99854.00
2022-08-26T18:22:44.857Z,99866.00
2022-08-26T18:28:47.224Z,99870.00
2022-08-26T18:34:49.743Z,99872.00
2022-08-26T18:40:52.578Z,99880.00
2022-08-26T18:46:54.775Z,99887.00
2022-08-26T18:52:57.102Z,99883.00
2022-08-26T18:59:00.064Z,99897.00
2022-08-26T19:05:02.239Z,99904.00
2022-08-26T19:11:04.620Z,99907.00
2022-08-26T19:17:09.455Z,99909.00
2022-08-26T19:23:30.358Z,99901.00
2022-08-26T19:29:35.882Z,99905.00
2022-08-26T19:35:38.274Z,99891.00
2022-08-26T19:41:40.662Z,99906.00
2022-08-26T19:47:43.187Z,99900.00
2022-08-26T19:53:46.183Z,99901.00
2022-08-26T19:59:48.305Z,99894.00
2022-08-26T20:05:50.414Z,99895.00
2022-08-26T20:11:52.794Z,99904.00
2022-08-26T20:17:58.915Z,99901.00
2022-08-26T20:24:08.782Z,99903.00
2022-08-26T20:30:11.731Z,99908.00
2022-08-26T20:36:15.381Z,99915.00
2022-08-26T20:42:27.389Z,99917.00
2022-08-26T20:48:30.278Z,99923.00
2022-08-26T20:54:32.401Z,99919.00
2022-08-26T21:00:34.910Z,99922.00
2022-08-26T21:06:38.599Z,99916.00
2022-08-26T21:12:41.071Z,99926.00
2022-08-26T21:18:43.626Z,99928.00
2022-08-26T21:24:45.812Z,99927.00
2022-08-26T21:30:48.164Z,99919.00
2022-08-26T21:36:50.317Z,99927.00
2022-08-26T21:42:52.568Z,99928.00
2022-08-26T21:49:01.263Z,99922.00
2022-08-26T21:55:08.848Z,99930.00
2022-08-26T22:01:13.642Z,99925.00
2022-08-26T22:07:18.413Z,99919.00
2022-08-26T22:13:26.605Z,99928.00
2022-08-26T22:19:32.007Z,99925.00
2022-08-26T22:25:36.542Z,99912.00
2022-08-26T22:31:39.058Z,99907.00
2022-08-26T22:37:41.190Z,99903.00
2022-08-26T22:43:43.539Z,99901.00
2022-08-26T22:49:46.980Z,99896.00
2022-08-26T22:55:49.826Z,99898.00
2022-08-26T23:01:52.075Z,99899.00
2022-08-26T23:07:54.338Z,99900.00
2022-08-26T23:13:56.506Z,99895.00
2022-08-26T23:19:58.881Z,99890.00
2022-08-26T23:26:04.454Z,99886.00
2022-08-26T23:32:08.441Z,99891.00
2022-08-26T23:38:11.696Z,99884.00
2022-08-26T23:44:17.099Z,99895.00
2022-08-26T23:50:22.605Z,99888.00
2022-08-26T23:56:25.183Z,99885.00
